sensor_id;sensor_type;location;lat;lon;timestamp;pressure;altitude;pressure_sealevel;temperature;humidity
40315;BME280;26021;45.640;11.302;2024-02-14T15:29:23;99353.84;;;10.49;100.00
40315;BME280;26021;45.640;11.302;2024-02-14T15:32:07;99458.19;;;11.24;100.00
40315;BME280;26021;45.640;11.302;2024-02-14T15:34:50;99465.88;;;11.19;100.00
40315;BME280;26021;45.640;11.302;2024-02-14T15:37:17;99326.88;;;10.27;100.00
40315;BME280;26021;45.640;11.302;2024-02-14T15:39:43;99470.56;;;11.17;100.00
40315;BME280;26021;45.640;11.302;2024-02-14T15:42:08;99429.84;;;10.89;100.00
40315;BME280;26021;45.640;11.302;2024-02-14T15:44:35;99473.25;;;11.33;100.00
40315;BME280;26021;45.640;11.302;2024-02-14T15:47:00;99481.97;;;11.35;100.00
40315;BME280;26021;45.640;11.302;2024-02-14T15:49:26;99480.97;;;11.44;100.00
40315;BME280;26021;45.640;11.302;2024-02-14T15:51:51;99486.13;;;11.30;100.00
40315;BME280;26021;45.640;11.302;2024-02-14T15:54:17;99475.25;;;11.23;100.00
40315;BME280;26021;45.640;11.302;2024-02-14T15:56:42;99485.41;;;11.11;100.00
40315;BME280;26021;45.640;11.302;2024-02-14T15:59:08;99488.41;;;11.08;100.00
40315;BME280;26021;45.640;11.302;2024-02-14T16:01:34;99485.84;;;10.82;100.00
40315;BME280;26021;45.640;11.302;2024-02-14T16:03:59;99493.91;;;10.91;100.00
40315;BME280;26021;45.640;11.302;2024-02-14T16:06:25;99486.44;;;10.60;100.00
40315;BME280;26021;45.640;11.302;2024-02-14T16:08:51;99507.91;;;10.76;100.00
40315;BME280;26021;45.640;11.302;2024-02-14T16:11:18;99503.34;;;10.61;100.00
40315;BME280;26021;45.640;11.302;2024-02-14T16:13:43;99451.84;;;10.25;100.00
40315;BME280;26021;45.640;11.302;2024-02-14T16:16:08;99451.00;;;10.24;100.00
40315;BME280;26021;45.640;11.302;2024-02-14T16:18:35;99513.81;;;10.46;100.00
40315;BME280;26021;45.640;11.302;2024-02-14T16:21:02;99515.06;;;10.34;100.00
40315;BME280;26021;45.640;11.302;2024-02-14T16:23:28;99507.81;;;10.26;100.00
40315;BME280;26021;45.640;11.302;2024-02-14T16:25:53;99496.63;;;10.23;100.00
40315;BME280;26021;45.640;11.302;2024-02-14T16:28:19;99512.09;;;10.19;100.00
40315;BME280;26021;45.640;11.302;2024-02-14T16:30:44;99508.66;;;10.01;100.00
40315;BME280;26021;45.640;11.302;2024-02-14T16:33:10;99508.44;;;9.94;100.00
40315;BME280;26021;45.640;11.302;2024-02-14T16:35:35;99516.34;;;9.78;100.00
40315;BME280;26021;45.640;11.302;2024-02-14T16:38:01;99415.63;;;9.27;100.00
40315;BME280;26021;45.640;11.302;2024-02-14T16:40:26;99502.31;;;9.76;100.00
40315;BME280;26021;45.640;11.302;2024-02-14T16:42:54;99535.13;;;9.68;100.00
40315;BME280;26021;45.640;11.302;2024-02-14T16:45:19;99537.69;;;9.60;100.00
40315;BME280;26021;45.640;11.302;2024-02-14T16:47:46;99534.97;;;9.52;100.00
40315;BME280;26021;45.640;11.302;2024-02-14T16:50:11;99520.84;;;9.24;100.00
40315;BME280;26021;45.640;11.302;2024-02-14T16:52:37;99546.03;;;9.39;100.00
40315;BME280;26021;45.640;11.302;2024-02-14T16:55:03;99548.78;;;9.47;100.00
40315;BME280;26021;45.640;11.302;2024-02-14T16:57:28;99542.13;;;9.34;100.00
40315;BME280;26021;45.640;11.302;2024-02-14T16:59:54;99514.53;;;9.25;100.00
40315;BME280;26021;45.640;11.302;2024-02-14T17:02:19;99507.75;;;8.85;100.00
40315;BME280;26021;45.640;11.302;2024-02-14T17:04:45;99561.03;;;9.22;100.00
40315;BME280;26021;45.640;11.302;2024-02-14T17:07:12;99494.31;;;8.77;100.00
40315;BME280;26021;45.640;11.302;2024-02-14T17:09:39;99567.34;;;9.04;100.00
40315;BME280;26021;45.640;11.302;2024-02-14T17:12:05;99551.63;;;8.73;100.00
40315;BME280;26021;45.640;11.302;2024-02-14T17:14:34;99510.38;;;8.68;100.00
40315;BME280;26021;45.640;11.302;2024-02-14T17:16:59;99573.84;;;8.91;100.00
40315;BME280;26021;45.640;11.302;2024-02-14T17:19:25;99565.44;;;8.86;100.00
40315;BME280;26021;45.640;11.302;2024-02-14T17:21:50;99562.78;;;8.86;100.00
40315;BME280;26021;45.640;11.302;2024-02-14T17:24:16;99556.81;;;8.75;100.00
40315;BME280;26021;45.640;11.302;2024-02-14T17:26:42;99561.84;;;8.78;100.00
40315;BME280;26021;45.640;11.302;2024-02-14T17:29:07;99475.63;;;8.22;100.00
40315;BME280;26021;45.640;11.302;2024-02-14T17:31:35;99563.53;;;8.79;100.00
40315;BME280;26021;45.640;11.302;2024-02-14T17:34:03;99571.72;;;8.68;100.00
40315;BME280;26021;45.640;11.302;2024-02-14T17:36:29;99576.88;;;8.42;100.00
40315;BME280;26021;45.640;11.302;2024-02-14T17:38:55;99564.53;;;8.41;100.00
40315;BME280;26021;45.640;11.302;2024-02-14T17:41:26;99538.34;;;8.07;100.00
40315;BME280;26021;45.640;11.302;2024-02-14T17:43:52;99500.00;;;7.71;100.00
40315;BME280;26021;45.640;11.302;2024-02-14T17:46:21;99577.47;;;8.07;100.00
40315;BME280;26021;45.640;11.302;2024-02-14T17:48:47;99584.19;;;8.20;100.00
40315;BME280;26021;45.640;11.302;2024-02-14T17:51:14;99598.75;;;8.16;100.00
40315;BME280;26021;45.640;11.302;2024-02-14T17:53:39;99580.13;;;8.07;100.00
40315;BME280;26021;45.640;11.302;2024-02-14T17:56:06;99529.84;;;7.75;100.00
40315;BME280;26021;45.640;11.302;2024-02-14T17:58:31;99611.56;;;7.93;100.00
40315;BME280;26021;45.640;11.302;2024-02-14T18:00:57;99605.53;;;7.62;100.00
40315;BME280;26021;45.640;11.302;2024-02-14T18:03:23;99574.28;;;7.74;100.00
40315;BME280;26021;45.640;11.302;2024-02-14T18:05:49;99559.44;;;7.72;100.00
40315;BME280;26021;45.640;11.302;2024-02-14T18:08:14;99605.78;;;8.08;100.00
40315;BME280;26021;45.640;11.302;2024-02-14T18:10:40;99604.38;;;8.04;100.00
40315;BME280;26021;45.640;11.302;2024-02-14T18:13:06;99554.97;;;7.62;100.00
40315;BME280;26021;45.640;11.302;2024-02-14T18:15:33;99611.41;;;7.85;100.00
40315;BME280;26021;45.640;11.302;2024-02-14T18:17:58;99548.09;;;7.60;100.00
40315;BME280;26021;45.640;11.302;2024-02-14T18:20:24;99598.38;;;7.73;100.00
40315;BME280;26021;45.640;11.302;2024-02-14T18:22:50;99617.16;;;7.71;100.00
40315;BME280;26021;45.640;11.302;2024-02-14T18:25:16;99577.50;;;7.68;100.00
40315;BME280;26021;45.640;11.302;2024-02-14T18:27:41;99366.00;;;6.37;100.00
40315;BME280;26021;45.640;11.302;2024-02-14T18:30:07;99579.75;;;7.53;100.00
40315;BME280;26021;45.640;11.302;2024-02-14T18:32:33;99547.50;;;7.27;100.00
40315;BME280;26021;45.640;11.302;2024-02-14T18:35:00;99612.81;;;7.60;100.00
40315;BME280;26021;45.640;11.302;2024-02-14T18:37:25;99613.38;;;7.54;100.00
40315;BME280;26021;45.640;11.302;2024-02-14T18:39:51;99610.16;;;7.60;100.00
40315;BME280;26021;45.640;11.302;2024-02-14T18:42:18;99477.91;;;6.44;100.00
40315;BME280;26021;45.640;11.302;2024-02-14T18:44:44;99537.94;;;6.96;100.00
40315;BME280;26021;45.640;11.302;2024-02-14T18:47:10;99610.03;;;7.62;100.00
40315;BME280;26021;45.640;11.302;2024-02-14T18:49:35;99616.72;;;7.47;100.00
40315;BME280;26021;45.640;11.302;2024-02-14T18:52:02;99513.16;;;6.95;100.00
40315;BME280;26021;45.640;11.302;2024-02-14T18:54:28;99617.25;;;7.31;100.00
40315;BME280;26021;45.640;11.302;2024-02-14T18:56:55;99626.22;;;7.30;100.00
40315;BME280;26021;45.640;11.302;2024-02-14T18:59:20;99627.56;;;7.15;100.00
40315;BME280;26021;45.640;11.302;2024-02-14T19:01:46;99608.94;;;7.15;100.00
40315;BME280;26021;45.640;11.302;2024-02-14T19:04:11;99629.97;;;7.18;100.00
40315;BME280;26021;45.640;11.302;2024-02-14T19:06:36;99625.34;;;7.20;100.00
40315;BME280;26021;45.640;11.302;2024-02-14T19:09:03;99483.69;;;6.18;100.00
40315;BME280;26021;45.640;11.302;2024-02-14T19:11:29;99638.41;;;7.32;100.00
40315;BME280;26021;45.640;11.302;2024-02-14T19:13:56;99628.84;;;7.20;100.00
40315;BME280;26021;45.640;11.302;2024-02-14T19:16:22;99628.03;;;7.29;100.00
40315;BME280;26021;45.640;11.302;2024-02-14T19:18:48;99571.97;;;6.62;100.00
40315;BME280;26021;45.640;11.302;2024-02-14T19:21:13;99636.69;;;6.82;100.00
40315;BME280;26021;45.640;11.302;2024-02-14T19:23:40;99620.72;;;6.72;100.00
40315;BME280;26021;45.640;11.302;2024-02-14T19:26:06;99627.47;;;6.86;100.00
40315;BME280;26021;45.640;11.302;2024-02-14T19:28:31;99621.59;;;6.82;100.00
40315;BME280;26021;45.640;11.302;2024-02-14T19:30:57;99613.81;;;7.00;100.00
40315;BME280;26021;45.640;11.302;2024-02-14T19:33:22;99603.81;;;6.83;100.00
40315;BME280;26021;45.640;11.302;2024-02-14T19:35:48;99596.97;;;6.80;100.00
40315;BME280;26021;45.640;11.302;2024-02-14T19:38:13;99618.75;;;6.74;100.00
40315;BME280;26021;45.640;11.302;2024-02-14T19:40:39;99609.75;;;6.65;100.00
40315;BME280;26021;45.640;11.302;2024-02-14T19:43:04;99633.91;;;6.83;100.00
40315;BME280;26021;45.640;11.302;2024-02-14T19:45:30;99630.84;;;6.88;100.00
40315;BME280;26021;45.640;11.302;2024-02-14T19:47:55;99627.44;;;6.76;100.00
40315;BME280;26021;45.640;11.302;2024-02-14T19:50:20;99617.22;;;6.72;100.00
40315;BME280;26021;45.640;11.302;2024-02-14T19:52:46;99634.72;;;6.74;100.00
40315;BME280;26021;45.640;11.302;2024-02-14T19:55:12;99641.31;;;6.80;100.00
40315;BME280;26021;45.640;11.302;2024-02-14T19:57:39;99570.84;;;6.34;100.00
40315;BME280;26021;45.640;11.302;2024-02-14T20:00:05;99630.16;;;6.65;100.00
40315;BME280;26021;45.640;11.302;2024-02-14T20:02:34;99589.91;;;6.39;100.00
40315;BME280;26021;45.640;11.302;2024-02-14T20:05:01;99637.78;;;6.69;100.00
40315;BME280;26021;45.640;11.302;2024-02-14T20:07:26;99637.03;;;6.67;100.00
40315;BME280;26021;45.640;11.302;2024-02-14T20:09:52;99552.50;;;6.00;100.00
40315;BME280;26021;45.640;11.302;2024-02-14T20:12:18;99616.28;;;6.31;100.00
40315;BME280;26021;45.640;11.302;2024-02-14T20:14:44;99624.56;;;6.37;100.00
40315;BME280;26021;45.640;11.302;2024-02-14T20:17:10;99569.22;;;6.12;100.00
40315;BME280;26021;45.640;11.302;2024-02-14T20:19:36;99636.59;;;6.62;100.00
40315;BME280;26021;45.640;11.302;2024-02-14T20:22:03;99585.09;;;6.02;100.00
40315;BME280;26021;45.640;11.302;2024-02-14T20:24:28;99635.59;;;6.33;100.00
40315;BME280;26021;45.640;11.302;2024-02-14T20:26:54;99619.59;;;6.23;100.00
40315;BME280;26021;45.640;11.302;2024-02-14T20:29:19;99580.41;;;6.16;100.00
40315;BME280;26021;45.640;11.302;2024-02-14T20:31:45;99651.34;;;6.46;100.00
40315;BME280;26021;45.640;11.302;2024-02-14T20:34:11;99649.47;;;6.16;100.00
40315;BME280;26021;45.640;11.302;2024-02-14T20:36:36;99645.69;;;5.97;100.00
40315;BME280;26021;45.640;11.302;2024-02-14T20:39:04;99644.94;;;6.07;100.00
40315;BME280;26021;45.640;11.302;2024-02-14T20:41:29;99642.00;;;6.30;100.00
40315;BME280;26021;45.640;11.302;2024-02-14T20:43:55;99616.38;;;5.99;100.00
40315;BME280;26021;45.640;11.302;2024-02-14T20:46:22;99647.78;;;6.15;100.00
40315;BME280;26021;45.640;11.302;2024-02-14T20:48:49;99648.38;;;6.18;100.00
40315;BME280;26021;45.640;11.302;2024-02-14T20:51:16;99648.22;;;6.20;100.00
40315;BME280;26021;45.640;11.302;2024-02-14T20:53:41;99617.72;;;5.82;100.00
40315;BME280;26021;45.640;11.302;2024-02-14T20:56:07;99652.00;;;6.17;100.00
40315;BME280;26021;45.640;11.302;2024-02-14T20:58:35;99657.88;;;5.89;100.00
40315;BME280;26021;45.640;11.302;2024-02-14T21:01:01;99627.38;;;5.83;100.00
40315;BME280;26021;45.640;11.302;2024-02-14T21:03:26;99647.59;;;6.07;100.00
40315;BME280;26021;45.640;11.302;2024-02-14T21:05:51;99660.47;;;6.11;100.00
40315;BME280;26021;45.640;11.302;2024-02-14T21:08:17;99654.38;;;5.88;100.00
40315;BME280;26021;45.640;11.302;2024-02-14T21:10:42;99646.41;;;5.88;100.00
40315;BME280;26021;45.640;11.302;2024-02-14T21:13:08;99651.78;;;6.09;100.00
40315;BME280;26021;45.640;11.302;2024-02-14T21:15:35;99663.34;;;6.19;100.00
40315;BME280;26021;45.640;11.302;2024-02-14T21:18:01;99630.63;;;5.98;100.00
40315;BME280;26021;45.640;11.302;2024-02-14T21:20:26;99663.72;;;6.15;100.00
40315;BME280;26021;45.640;11.302;2024-02-14T21:22:52;99662.50;;;6.19;100.00
40315;BME280;26021;45.640;11.302;2024-02-14T21:25:17;99624.22;;;5.89;100.00
40315;BME280;26021;45.640;11.302;2024-02-14T21:27:43;99665.47;;;6.04;100.00
40315;BME280;26021;45.640;11.302;2024-02-14T21:30:08;99659.44;;;6.02;100.00
40315;BME280;26021;45.640;11.302;2024-02-14T21:32:34;99659.69;;;5.88;100.00
40315;BME280;26021;45.640;11.302;2024-02-14T21:34:59;99662.47;;;5.98;100.00
40315;BME280;26021;45.640;11.302;2024-02-14T21:37:24;99655.59;;;5.84;100.00
40315;BME280;26021;45.640;11.302;2024-02-14T21:39:50;99656.94;;;5.90;100.00
40315;BME280;26021;45.640;11.302;2024-02-14T21:42:16;99640.56;;;5.73;100.00
40315;BME280;26021;45.640;11.302;2024-02-14T21:44:41;99665.13;;;5.87;100.00
40315;BME280;26021;45.640;11.302;2024-02-14T21:47:07;99637.34;;;5.59;100.00
40315;BME280;26021;45.640;11.302;2024-02-14T21:49:33;99653.38;;;5.68;100.00
40315;BME280;26021;45.640;11.302;2024-02-14T21:51:59;99566.53;;;5.38;100.00
40315;BME280;26021;45.640;11.302;2024-02-14T21:54:31;99584.72;;;5.43;100.00
40315;BME280;26021;45.640;11.302;2024-02-14T21:56:59;99613.19;;;5.41;100.00
40315;BME280;26021;45.640;11.302;2024-02-14T21:59:24;99654.84;;;5.61;100.00
40315;BME280;26021;45.640;11.302;2024-02-14T22:01:50;99658.34;;;5.62;100.00
40315;BME280;26021;45.640;11.302;2024-02-14T22:04:17;99652.72;;;5.76;100.00
40315;BME280;26021;45.640;11.302;2024-02-14T22:06:42;99655.31;;;5.66;100.00
40315;BME280;26021;45.640;11.302;2024-02-14T22:09:08;99641.53;;;5.72;100.00
40315;BME280;26021;45.640;11.302;2024-02-14T22:11:34;99627.25;;;5.53;100.00
40315;BME280;26021;45.640;11.302;2024-02-14T22:14:01;99647.13;;;5.58;100.00
40315;BME280;26021;45.640;11.302;2024-02-14T22:16:26;99635.84;;;5.45;100.00
40315;BME280;26021;45.640;11.302;2024-02-14T22:18:52;99627.22;;;5.64;100.00
40315;BME280;26021;45.640;11.302;2024-02-14T22:21:18;99639.44;;;5.55;100.00
40315;BME280;26021;45.640;11.302;2024-02-14T22:23:43;99557.81;;;5.04;100.00
40315;BME280;26021;45.640;11.302;2024-02-14T22:26:09;99628.66;;;5.25;100.00
40315;BME280;26021;45.640;11.302;2024-02-14T22:28:35;99647.34;;;5.23;100.00
40315;BME280;26021;45.640;11.302;2024-02-14T22:31:03;99638.06;;;5.29;100.00
40315;BME280;26021;45.640;11.302;2024-02-14T22:33:28;99633.81;;;5.37;100.00
40315;BME280;26021;45.640;11.302;2024-02-14T22:35:57;99633.22;;;5.34;100.00
40315;BME280;26021;45.640;11.302;2024-02-14T22:38:23;99636.91;;;5.54;100.00
40315;BME280;26021;45.640;11.302;2024-02-14T22:40:49;99583.06;;;5.20;100.00
40315;BME280;26021;45.640;11.302;2024-02-14T22:43:15;99627.41;;;5.40;100.00
40315;BME280;26021;45.640;11.302;2024-02-14T22:45:41;99453.25;;;4.43;100.00
40315;BME280;26021;45.640;11.302;2024-02-14T22:48:06;99624.25;;;5.46;100.00
40315;BME280;26021;45.640;11.302;2024-02-14T22:50:33;99589.00;;;5.12;100.00
40315;BME280;26021;45.640;11.302;2024-02-14T22:52:59;99610.78;;;5.38;100.00
40315;BME280;26021;45.640;11.302;2024-02-14T22:55:24;99627.38;;;5.51;100.00
40315;BME280;26021;45.640;11.302;2024-02-14T22:57:50;99519.81;;;4.72;100.00
40315;BME280;26021;45.640;11.302;2024-02-14T23:00:15;99640.47;;;5.32;100.00
40315;BME280;26021;45.640;11.302;2024-02-14T23:02:41;99601.53;;;5.21;100.00
40315;BME280;26021;45.640;11.302;2024-02-14T23:05:08;99626.13;;;5.23;100.00
40315;BME280;26021;45.640;11.302;2024-02-14T23:07:37;99599.50;;;5.25;100.00
40315;BME280;26021;45.640;11.302;2024-02-14T23:10:03;99617.78;;;5.39;100.00
40315;BME280;26021;45.640;11.302;2024-02-14T23:12:30;99557.97;;;4.81;100.00
40315;BME280;26021;45.640;11.302;2024-02-14T23:14:56;99623.09;;;5.17;100.00
40315;BME280;26021;45.640;11.302;2024-02-14T23:17:22;99474.72;;;4.18;100.00
40315;BME280;26021;45.640;11.302;2024-02-14T23:19:48;99633.59;;;5.18;100.00
40315;BME280;26021;45.640;11.302;2024-02-14T23:22:15;99644.56;;;5.14;100.00
40315;BME280;26021;45.640;11.302;2024-02-14T23:24:41;99635.53;;;5.16;100.00
40315;BME280;26021;45.640;11.302;2024-02-14T23:27:06;99565.47;;;4.53;100.00
40315;BME280;26021;45.640;11.302;2024-02-14T23:29:32;99636.38;;;5.05;100.00
40315;BME280;26021;45.640;11.302;2024-02-14T23:31:58;99632.41;;;5.11;100.00
40315;BME280;26021;45.640;11.302;2024-02-14T23:34:23;99637.19;;;5.17;100.00
40315;BME280;26021;45.640;11.302;2024-02-14T23:36:48;99626.97;;;5.13;100.00
40315;BME280;26021;45.640;11.302;2024-02-14T23:39:15;99577.63;;;4.78;100.00
40315;BME280;26021;45.640;11.302;2024-02-14T23:41:41;99607.59;;;4.90;100.00
40315;BME280;26021;45.640;11.302;2024-02-14T23:44:06;99622.88;;;5.08;100.00
40315;BME280;26021;45.640;11.302;2024-02-14T23:46:34;99617.69;;;5.07;100.00
40315;BME280;26021;45.640;11.302;2024-02-14T23:49:00;99614.31;;;5.27;100.00
40315;BME280;26021;45.640;11.302;2024-02-14T23:51:27;99576.63;;;5.01;100.00
40315;BME280;26021;45.640;11.302;2024-02-14T23:53:54;99612.75;;;5.25;100.00
40315;BME280;26021;45.640;11.302;2024-02-14T23:56:19;99615.03;;;5.07;100.00
40315;BME280;26021;45.640;11.302;2024-02-14T23:58:45;99614.19;;;5.18;100.00
